Terminal Aerodrome Forecast
Issued by NWS

Home | Current Version | Previous Version | Text Only | Print | Product List | Glossary On
Versions: 1 2 3 4 5 6 7 8 9 10 11 12 13 14 15 16 17 18 19 20 21 22 23 24 25
000
FTUS41 KBTV 030534
TAFPBG
TAF
KPBG 030534Z 0306/0406 32006KT P6SM SKC
     FM031300 15006KT P6SM SCT080 BKN120
     FM031800 15009G18KT P6SM SCT040 BKN080
     FM032300 16011G21KT 5SM -SHSN SCT025 OVC040
     FM040100 17013G22KT 2SM -SN BR SCT015 OVC025
     FM040400 17015G30KT 5SM -SHSN BR SCT015 OVC025=

USA.gov is the U.S. government's official web portal to all federal, state and local government web resources and services.